sensor_id;sensor_type;location;lat;lon;timestamp;P1;P2;P0
73517;PMS5003;61766;60.318;25.044;2024-03-06T00:01:42;2;2;
73517;PMS5003;61766;60.318;25.044;2024-03-06T00:04:08;3;2;
73517;PMS5003;61766;60.318;25.044;2024-03-06T00:06:33;2;2;
73517;PMS5003;61766;60.318;25.044;2024-03-06T00:08:59;3;3;
73517;PMS5003;61766;60.318;25.044;2024-03-06T00:11:24;2;2;
73517;PMS5003;61766;60.318;25.044;2024-03-06T00:13:49;2;2;
73517;PMS5003;61766;60.318;25.044;2024-03-06T00:16:14;2;2;
73517;PMS5003;61766;60.318;25.044;2024-03-06T00:18:40;3;3;
73517;PMS5003;61766;60.318;25.044;2024-03-06T00:21:05;2;2;
73517;PMS5003;61766;60.318;25.044;2024-03-06T00:23:30;2;1;
73517;PMS5003;61766;60.318;25.044;2024-03-06T00:25:56;3;3;
73517;PMS5003;61766;60.318;25.044;2024-03-06T00:28:21;2;2;
73517;PMS5003;61766;60.318;25.044;2024-03-06T00:30:46;3;2;
73517;PMS5003;61766;60.318;25.044;2024-03-06T00:33:11;4;4;
73517;PMS5003;61766;60.318;25.044;2024-03-06T00:35:37;1;1;
73517;PMS5003;61766;60.318;25.044;2024-03-06T00:38:02;1;1;
73517;PMS5003;61766;60.318;25.044;2024-03-06T00:40:27;2;2;
73517;PMS5003;61766;60.318;25.044;2024-03-06T00:42:53;2;2;
73517;PMS5003;61766;60.318;25.044;2024-03-06T00:45:18;3;3;
73517;PMS5003;61766;60.318;25.044;2024-03-06T00:47:43;2;2;
73517;PMS5003;61766;60.318;25.044;2024-03-06T00:50:09;4;3;
73517;PMS5003;61766;60.318;25.044;2024-03-06T00:52:34;3;2;
73517;PMS5003;61766;60.318;25.044;2024-03-06T00:54:59;4;2;
73517;PMS5003;61766;60.318;25.044;2024-03-06T00:57:25;1;1;
73517;PMS5003;61766;60.318;25.044;2024-03-06T00:59:50;3;3;
73517;PMS5003;61766;60.318;25.044;2024-03-06T01:02:15;2;2;
73517;PMS5003;61766;60.318;25.044;2024-03-06T01:04:41;2;1;
73517;PMS5003;61766;60.318;25.044;2024-03-06T01:07:07;1;1;
73517;PMS5003;61766;60.318;25.044;2024-03-06T01:09:32;0;0;
73517;PMS5003;61766;60.318;25.044;2024-03-06T01:11:57;3;2;
73517;PMS5003;61766;60.318;25.044;2024-03-06T01:14:22;2;2;
73517;PMS5003;61766;60.318;25.044;2024-03-06T01:16:48;3;3;
73517;PMS5003;61766;60.318;25.044;2024-03-06T01:19:13;3;3;
73517;PMS5003;61766;60.318;25.044;2024-03-06T01:21:38;3;3;
73517;PMS5003;61766;60.318;25.044;2024-03-06T01:24:04;3;3;
73517;PMS5003;61766;60.318;25.044;2024-03-06T01:26:29;2;2;
73517;PMS5003;61766;60.318;25.044;2024-03-06T01:28:54;5;3;
73517;PMS5003;61766;60.318;25.044;2024-03-06T01:31:20;3;2;
73517;PMS5003;61766;60.318;25.044;2024-03-06T01:33:45;2;2;
73517;PMS5003;61766;60.318;25.044;2024-03-06T01:36:11;2;2;
73517;PMS5003;61766;60.318;25.044;2024-03-06T01:38:36;4;2;
73517;PMS5003;61766;60.318;25.044;2024-03-06T01:41:01;3;3;
73517;PMS5003;61766;60.318;25.044;2024-03-06T01:43:29;2;2;
73517;PMS5003;61766;60.318;25.044;2024-03-06T01:45:52;2;2;
73517;PMS5003;61766;60.318;25.044;2024-03-06T01:48:17;2;2;
73517;PMS5003;61766;60.318;25.044;2024-03-06T01:50:43;3;3;
73517;PMS5003;61766;60.318;25.044;2024-03-06T01:53:08;4;4;
73517;PMS5003;61766;60.318;25.044;2024-03-06T01:55:33;2;2;
73517;PMS5003;61766;60.318;25.044;2024-03-06T01:57:59;3;2;
73517;PMS5003;61766;60.318;25.044;2024-03-06T02:00:24;3;3;
73517;PMS5003;61766;60.318;25.044;2024-03-06T02:02:49;2;2;
73517;PMS5003;61766;60.318;25.044;2024-03-06T02:05:15;3;3;
73517;PMS5003;61766;60.318;25.044;2024-03-06T02:07:40;2;2;
73517;PMS5003;61766;60.318;25.044;2024-03-06T02:10:06;2;2;
73517;PMS5003;61766;60.318;25.044;2024-03-06T02:12:31;1;1;
73517;PMS5003;61766;60.318;25.044;2024-03-06T02:14:56;3;2;
73517;PMS5003;61766;60.318;25.044;2024-03-06T02:17:22;2;2;
73517;PMS5003;61766;60.318;25.044;2024-03-06T02:19:47;3;3;
73517;PMS5003;61766;60.318;25.044;2024-03-06T02:22:12;1;1;
73517;PMS5003;61766;60.318;25.044;2024-03-06T02:24:38;1;1;
73517;PMS5003;61766;60.318;25.044;2024-03-06T02:27:03;1;1;
73517;PMS5003;61766;60.318;25.044;2024-03-06T02:29:28;1;1;
73517;PMS5003;61766;60.318;25.044;2024-03-06T02:31:54;3;3;
73517;PMS5003;61766;60.318;25.044;2024-03-06T02:34:19;4;3;
73517;PMS5003;61766;60.318;25.044;2024-03-06T02:36:44;7;5;
73517;PMS5003;61766;60.318;25.044;2024-03-06T02:39:09;2;2;
73517;PMS5003;61766;60.318;25.044;2024-03-06T02:41:34;4;3;
73517;PMS5003;61766;60.318;25.044;2024-03-06T02:44:00;3;2;
73517;PMS5003;61766;60.318;25.044;2024-03-06T02:46:25;4;3;
73517;PMS5003;61766;60.318;25.044;2024-03-06T02:48:50;3;3;
73517;PMS5003;61766;60.318;25.044;2024-03-06T02:51:17;4;4;
73517;PMS5003;61766;60.318;25.044;2024-03-06T02:53:41;2;2;
73517;PMS5003;61766;60.318;25.044;2024-03-06T02:56:07;1;1;
73517;PMS5003;61766;60.318;25.044;2024-03-06T02:58:32;3;3;
73517;PMS5003;61766;60.318;25.044;2024-03-06T03:00:57;2;2;
73517;PMS5003;61766;60.318;25.044;2024-03-06T03:03:23;1;1;
73517;PMS5003;61766;60.318;25.044;2024-03-06T03:05:48;2;2;
73517;PMS5003;61766;60.318;25.044;2024-03-06T03:08:13;1;1;
73517;PMS5003;61766;60.318;25.044;2024-03-06T03:10:39;2;2;
73517;PMS5003;61766;60.318;25.044;2024-03-06T03:13:04;3;3;
73517;PMS5003;61766;60.318;25.044;2024-03-06T03:15:29;1;1;
73517;PMS5003;61766;60.318;25.044;2024-03-06T03:17:55;7;5;
73517;PMS5003;61766;60.318;25.044;2024-03-06T03:20:20;3;2;
73517;PMS5003;61766;60.318;25.044;2024-03-06T03:22:45;2;2;
73517;PMS5003;61766;60.318;25.044;2024-03-06T03:25:11;3;3;
73517;PMS5003;61766;60.318;25.044;2024-03-06T03:27:36;3;3;
73517;PMS5003;61766;60.318;25.044;2024-03-06T03:30:02;2;2;
73517;PMS5003;61766;60.318;25.044;2024-03-06T03:32:27;3;3;
73517;PMS5003;61766;60.318;25.044;2024-03-06T03:34:53;4;2;
73517;PMS5003;61766;60.318;25.044;2024-03-06T03:37:17;3;3;
73517;PMS5003;61766;60.318;25.044;2024-03-06T03:39:43;3;3;
73517;PMS5003;61766;60.318;25.044;2024-03-06T03:42:08;3;3;
73517;PMS5003;61766;60.318;25.044;2024-03-06T03:44:34;2;2;
73517;PMS5003;61766;60.318;25.044;2024-03-06T03:46:59;3;2;
73517;PMS5003;61766;60.318;25.044;2024-03-06T03:49:24;3;3;
73517;PMS5003;61766;60.318;25.044;2024-03-06T03:51:50;2;2;
73517;PMS5003;61766;60.318;25.044;2024-03-06T03:54:15;2;2;
73517;PMS5003;61766;60.318;25.044;2024-03-06T03:56:40;2;2;
73517;PMS5003;61766;60.318;25.044;2024-03-06T03:59:06;2;2;
73517;PMS5003;61766;60.318;25.044;2024-03-06T04:01:31;3;3;
73517;PMS5003;61766;60.318;25.044;2024-03-06T04:03:56;3;3;
73517;PMS5003;61766;60.318;25.044;2024-03-06T04:06:22;2;2;
73517;PMS5003;61766;60.318;25.044;2024-03-06T04:08:47;2;2;
73517;PMS5003;61766;60.318;25.044;2024-03-06T04:11:12;3;2;
73517;PMS5003;61766;60.318;25.044;2024-03-06T04:13:38;3;3;
73517;PMS5003;61766;60.318;25.044;2024-03-06T04:16:03;3;2;
73517;PMS5003;61766;60.318;25.044;2024-03-06T04:18:29;3;3;
73517;PMS5003;61766;60.318;25.044;2024-03-06T04:20:54;2;2;
73517;PMS5003;61766;60.318;25.044;2024-03-06T04:23:19;2;2;
73517;PMS5003;61766;60.318;25.044;2024-03-06T04:25:45;6;6;
73517;PMS5003;61766;60.318;25.044;2024-03-06T04:28:10;3;3;
73517;PMS5003;61766;60.318;25.044;2024-03-06T04:30:36;2;2;
73517;PMS5003;61766;60.318;25.044;2024-03-06T04:33:00;2;1;
73517;PMS5003;61766;60.318;25.044;2024-03-06T04:35:26;2;2;
73517;PMS5003;61766;60.318;25.044;2024-03-06T04:37:51;2;2;
73517;PMS5003;61766;60.318;25.044;2024-03-06T04:40:17;2;2;
73517;PMS5003;61766;60.318;25.044;2024-03-06T04:42:42;4;3;
73517;PMS5003;61766;60.318;25.044;2024-03-06T04:45:10;3;2;
73517;PMS5003;61766;60.318;25.044;2024-03-06T04:47:33;2;2;
73517;PMS5003;61766;60.318;25.044;2024-03-06T04:49:58;2;2;
73517;PMS5003;61766;60.318;25.044;2024-03-06T04:52:23;3;3;
73517;PMS5003;61766;60.318;25.044;2024-03-06T04:54:50;2;2;
73517;PMS5003;61766;60.318;25.044;2024-03-06T04:57:14;2;2;
73517;PMS5003;61766;60.318;25.044;2024-03-06T04:59:40;2;2;
73517;PMS5003;61766;60.318;25.044;2024-03-06T05:02:05;2;2;
73517;PMS5003;61766;60.318;25.044;2024-03-06T05:04:30;3;3;
73517;PMS5003;61766;60.318;25.044;2024-03-06T05:09:21;6;4;
73517;PMS5003;61766;60.318;25.044;2024-03-06T05:11:47;4;3;
73517;PMS5003;61766;60.318;25.044;2024-03-06T05:14:12;3;3;
73517;PMS5003;61766;60.318;25.044;2024-03-06T05:16:37;7;4;
73517;PMS5003;61766;60.318;25.044;2024-03-06T05:19:03;6;6;
73517;PMS5003;61766;60.318;25.044;2024-03-06T05:21:28;6;4;
73517;PMS5003;61766;60.318;25.044;2024-03-06T05:23:54;4;4;
73517;PMS5003;61766;60.318;25.044;2024-03-06T05:26:19;4;4;
73517;PMS5003;61766;60.318;25.044;2024-03-06T05:28:44;4;4;
73517;PMS5003;61766;60.318;25.044;2024-03-06T05:33:35;8;7;
73517;PMS5003;61766;60.318;25.044;2024-03-06T05:36:01;3;3;
73517;PMS5003;61766;60.318;25.044;2024-03-06T05:38:26;4;4;
73517;PMS5003;61766;60.318;25.044;2024-03-06T05:40:51;4;4;
73517;PMS5003;61766;60.318;25.044;2024-03-06T05:43:17;7;6;
73517;PMS5003;61766;60.318;25.044;2024-03-06T05:45:42;6;4;
73517;PMS5003;61766;60.318;25.044;2024-03-06T05:48:08;6;6;
73517;PMS5003;61766;60.318;25.044;2024-03-06T05:50:33;6;6;
73517;PMS5003;61766;60.318;25.044;2024-03-06T05:52:58;7;7;
73517;PMS5003;61766;60.318;25.044;2024-03-06T05:55:24;4;4;
73517;PMS5003;61766;60.318;25.044;2024-03-06T05:57:49;6;6;
73517;PMS5003;61766;60.318;25.044;2024-03-06T06:00:15;7;7;
73517;PMS5003;61766;60.318;25.044;2024-03-06T06:02:40;7;4;
73517;PMS5003;61766;60.318;25.044;2024-03-06T06:05:06;6;6;
73517;PMS5003;61766;60.318;25.044;2024-03-06T06:07:31;4;4;
73517;PMS5003;61766;60.318;25.044;2024-03-06T06:09:56;8;7;
73517;PMS5003;61766;60.318;25.044;2024-03-06T06:12:21;8;7;
73517;PMS5003;61766;60.318;25.044;2024-03-06T06:14:48;10;9;
73517;PMS5003;61766;60.318;25.044;2024-03-06T06:17:12;8;8;
73517;PMS5003;61766;60.318;25.044;2024-03-06T06:19:37;8;8;
73517;PMS5003;61766;60.318;25.044;2024-03-06T06:22:03;8;8;
73517;PMS5003;61766;60.318;25.044;2024-03-06T06:24:28;8;8;
73517;PMS5003;61766;60.318;25.044;2024-03-06T06:26:53;16;13;
73517;PMS5003;61766;60.318;25.044;2024-03-06T06:29:18;14;13;
73517;PMS5003;61766;60.318;25.044;2024-03-06T06:31:43;14;12;
73517;PMS5003;61766;60.318;25.044;2024-03-06T06:34:09;15;12;
73517;PMS5003;61766;60.318;25.044;2024-03-06T06:36:34;18;17;
73517;PMS5003;61766;60.318;25.044;2024-03-06T06:38:59;17;15;
73517;PMS5003;61766;60.318;25.044;2024-03-06T06:41:25;17;16;
73517;PMS5003;61766;60.318;25.044;2024-03-06T06:43:50;19;17;
73517;PMS5003;61766;60.318;25.044;2024-03-06T06:46:16;17;17;
73517;PMS5003;61766;60.318;25.044;2024-03-06T06:48:42;13;11;
73517;PMS5003;61766;60.318;25.044;2024-03-06T06:51:07;15;13;
73517;PMS5003;61766;60.318;25.044;2024-03-06T06:53:32;14;13;
73517;PMS5003;61766;60.318;25.044;2024-03-06T06:55:58;13;12;
73517;PMS5003;61766;60.318;25.044;2024-03-06T06:58:23;11;10;
73517;PMS5003;61766;60.318;25.044;2024-03-06T07:00:48;12;11;
73517;PMS5003;61766;60.318;25.044;2024-03-06T07:03:13;11;9;
73517;PMS5003;61766;60.318;25.044;2024-03-06T07:05:39;9;9;
73517;PMS5003;61766;60.318;25.044;2024-03-06T07:08:04;12;10;
73517;PMS5003;61766;60.318;25.044;2024-03-06T07:10:29;11;11;
73517;PMS5003;61766;60.318;25.044;2024-03-06T07:12:55;12;10;
73517;PMS5003;61766;60.318;25.044;2024-03-06T07:15:20;9;9;
73517;PMS5003;61766;60.318;25.044;2024-03-06T07:17:45;11;11;
73517;PMS5003;61766;60.318;25.044;2024-03-06T07:20:11;9;9;
73517;PMS5003;61766;60.318;25.044;2024-03-06T07:22:36;13;10;
73517;PMS5003;61766;60.318;25.044;2024-03-06T07:25:02;11;11;
73517;PMS5003;61766;60.318;25.044;2024-03-06T07:27:27;10;9;
73517;PMS5003;61766;60.318;25.044;2024-03-06T07:29:52;11;11;
73517;PMS5003;61766;60.318;25.044;2024-03-06T07:32:17;10;8;
73517;PMS5003;61766;60.318;25.044;2024-03-06T07:34:43;7;7;
73517;PMS5003;61766;60.318;25.044;2024-03-06T07:37:08;8;8;
73517;PMS5003;61766;60.318;25.044;2024-03-06T07:39:33;8;7;
73517;PMS5003;61766;60.318;25.044;2024-03-06T07:41:58;8;8;
73517;PMS5003;61766;60.318;25.044;2024-03-06T07:44:23;10;9;
73517;PMS5003;61766;60.318;25.044;2024-03-06T07:46:48;7;7;
73517;PMS5003;61766;60.318;25.044;2024-03-06T07:49:13;7;7;
73517;PMS5003;61766;60.318;25.044;2024-03-06T07:51:39;10;9;
73517;PMS5003;61766;60.318;25.044;2024-03-06T07:54:04;8;7;
73517;PMS5003;61766;60.318;25.044;2024-03-06T07:56:29;7;7;
73517;PMS5003;61766;60.318;25.044;2024-03-06T07:58:54;6;6;
73517;PMS5003;61766;60.318;25.044;2024-03-06T08:01:19;5;5;
73517;PMS5003;61766;60.318;25.044;2024-03-06T08:03:44;6;6;
73517;PMS5003;61766;60.318;25.044;2024-03-06T08:06:09;7;6;
73517;PMS5003;61766;60.318;25.044;2024-03-06T08:08:34;4;4;
73517;PMS5003;61766;60.318;25.044;2024-03-06T08:10:59;5;5;
73517;PMS5003;61766;60.318;25.044;2024-03-06T08:13:24;4;4;
73517;PMS5003;61766;60.318;25.044;2024-03-06T08:15:50;4;4;
73517;PMS5003;61766;60.318;25.044;2024-03-06T08:18:15;3;3;
73517;PMS5003;61766;60.318;25.044;2024-03-06T08:20:40;5;5;
73517;PMS5003;61766;60.318;25.044;2024-03-06T08:23:05;5;5;
73517;PMS5003;61766;60.318;25.044;2024-03-06T08:25:30;5;4;
73517;PMS5003;61766;60.318;25.044;2024-03-06T08:27:55;2;2;
73517;PMS5003;61766;60.318;25.044;2024-03-06T08:30:20;3;3;
73517;PMS5003;61766;60.318;25.044;2024-03-06T08:32:45;4;4;
73517;PMS5003;61766;60.318;25.044;2024-03-06T08:35:11;4;4;
73517;PMS5003;61766;60.318;25.044;2024-03-06T08:37:35;4;3;
73517;PMS5003;61766;60.318;25.044;2024-03-06T08:40:00;4;3;
73517;PMS5003;61766;60.318;25.044;2024-03-06T08:42:25;4;4;
73517;PMS5003;61766;60.318;25.044;2024-03-06T08:44:50;6;4;
73517;PMS5003;61766;60.318;25.044;2024-03-06T08:47:15;1;1;
73517;PMS5003;61766;60.318;25.044;2024-03-06T08:49:41;3;3;
73517;PMS5003;61766;60.318;25.044;2024-03-06T08:52:07;5;5;
73517;PMS5003;61766;60.318;25.044;2024-03-06T08:54:33;2;2;
73517;PMS5003;61766;60.318;25.044;2024-03-06T08:56:58;2;2;
73517;PMS5003;61766;60.318;25.044;2024-03-06T08:59:24;2;2;
73517;PMS5003;61766;60.318;25.044;2024-03-06T09:01:51;4;4;
73517;PMS5003;61766;60.318;25.044;2024-03-06T09:04:16;3;2;
73517;PMS5003;61766;60.318;25.044;2024-03-06T09:06:42;2;2;
73517;PMS5003;61766;60.318;25.044;2024-03-06T09:09:07;4;1;
73517;PMS5003;61766;60.318;25.044;2024-03-06T09:11:32;3;2;
73517;PMS5003;61766;60.318;25.044;2024-03-06T09:13:57;5;3;
73517;PMS5003;61766;60.318;25.044;2024-03-06T09:16:23;2;2;
73517;PMS5003;61766;60.318;25.044;2024-03-06T09:18:48;1;1;
73517;PMS5003;61766;60.318;25.044;2024-03-06T09:21:13;0;0;
73517;PMS5003;61766;60.318;25.044;2024-03-06T09:23:38;2;1;
73517;PMS5003;61766;60.318;25.044;2024-03-06T09:26:04;2;1;
73517;PMS5003;61766;60.318;25.044;2024-03-06T09:28:30;4;2;
73517;PMS5003;61766;60.318;25.044;2024-03-06T09:30:56;3;1;
73517;PMS5003;61766;60.318;25.044;2024-03-06T09:33:21;3;2;
73517;PMS5003;61766;60.318;25.044;2024-03-06T09:35:47;2;1;
73517;PMS5003;61766;60.318;25.044;2024-03-06T09:38:14;2;2;
73517;PMS5003;61766;60.318;25.044;2024-03-06T09:40:38;2;2;
73517;PMS5003;61766;60.318;25.044;2024-03-06T09:43:03;2;1;
73517;PMS5003;61766;60.318;25.044;2024-03-06T09:45:28;1;0;
73517;PMS5003;61766;60.318;25.044;2024-03-06T09:47:53;0;0;
73517;PMS5003;61766;60.318;25.044;2024-03-06T09:50:18;1;1;
73517;PMS5003;61766;60.318;25.044;2024-03-06T09:52:44;2;1;
73517;PMS5003;61766;60.318;25.044;2024-03-06T09:55:10;1;1;
73517;PMS5003;61766;60.318;25.044;2024-03-06T09:57:36;3;2;
73517;PMS5003;61766;60.318;25.044;2024-03-06T10:00:02;0;0;
73517;PMS5003;61766;60.318;25.044;2024-03-06T10:02:30;2;2;
73517;PMS5003;61766;60.318;25.044;2024-03-06T10:04:53;0;0;
73517;PMS5003;61766;60.318;25.044;2024-03-06T10:07:19;1;1;
73517;PMS5003;61766;60.318;25.044;2024-03-06T10:09:46;1;1;
73517;PMS5003;61766;60.318;25.044;2024-03-06T10:12:11;1;0;
73517;PMS5003;61766;60.318;25.044;2024-03-06T10:14:36;0;0;
73517;PMS5003;61766;60.318;25.044;2024-03-06T10:17:02;2;1;
73517;PMS5003;61766;60.318;25.044;2024-03-06T10:19:29;3;2;
73517;PMS5003;61766;60.318;25.044;2024-03-06T10:21:54;3;1;
73517;PMS5003;61766;60.318;25.044;2024-03-06T10:24:20;1;1;
73517;PMS5003;61766;60.318;25.044;2024-03-06T10:26:46;3;1;
73517;PMS5003;61766;60.318;25.044;2024-03-06T10:29:14;1;1;
73517;PMS5003;61766;60.318;25.044;2024-03-06T10:31:36;3;3;
73517;PMS5003;61766;60.318;25.044;2024-03-06T10:34:02;2;1;
73517;PMS5003;61766;60.318;25.044;2024-03-06T10:36:27;2;1;
73517;PMS5003;61766;60.318;25.044;2024-03-06T10:38:51;1;0;
73517;PMS5003;61766;60.318;25.044;2024-03-06T10:41:17;3;2;
73517;PMS5003;61766;60.318;25.044;2024-03-06T10:43:43;3;2;
73517;PMS5003;61766;60.318;25.044;2024-03-06T10:46:10;1;1;
73517;PMS5003;61766;60.318;25.044;2024-03-06T10:48:35;1;1;
73517;PMS5003;61766;60.318;25.044;2024-03-06T10:51:01;2;2;
73517;PMS5003;61766;60.318;25.044;2024-03-06T10:53:27;4;4;
73517;PMS5003;61766;60.318;25.044;2024-03-06T10:55:52;1;0;
73517;PMS5003;61766;60.318;25.044;2024-03-06T10:58:19;3;2;
73517;PMS5003;61766;60.318;25.044;2024-03-06T11:00:45;2;1;
73517;PMS5003;61766;60.318;25.044;2024-03-06T11:03:09;1;1;
73517;PMS5003;61766;60.318;25.044;2024-03-06T11:05:34;1;1;
73517;PMS5003;61766;60.318;25.044;2024-03-06T11:07:58;2;1;
73517;PMS5003;61766;60.318;25.044;2024-03-06T11:10:30;0;0;
73517;PMS5003;61766;60.318;25.044;2024-03-06T11:12:49;2;2;
73517;PMS5003;61766;60.318;25.044;2024-03-06T11:15:15;1;0;
73517;PMS5003;61766;60.318;25.044;2024-03-06T11:17:41;2;1;
73517;PMS5003;61766;60.318;25.044;2024-03-06T11:20:08;1;0;
73517;PMS5003;61766;60.318;25.044;2024-03-06T11:24:57;2;1;
73517;PMS5003;61766;60.318;25.044;2024-03-06T11:27:22;3;2;
73517;PMS5003;61766;60.318;25.044;2024-03-06T11:32:12;0;0;
73517;PMS5003;61766;60.318;25.044;2024-03-06T11:34:37;2;2;
73517;PMS5003;61766;60.318;25.044;2024-03-06T11:37:03;3;1;
73517;PMS5003;61766;60.318;25.044;2024-03-06T11:39:28;2;1;
73517;PMS5003;61766;60.318;25.044;2024-03-06T11:41:52;2;1;
73517;PMS5003;61766;60.318;25.044;2024-03-06T11:44:18;0;0;
73517;PMS5003;61766;60.318;25.044;2024-03-06T11:46:42;2;2;
73517;PMS5003;61766;60.318;25.044;2024-03-06T11:51:32;1;1;
73517;PMS5003;61766;60.318;25.044;2024-03-06T11:53:57;1;1;
73517;PMS5003;61766;60.318;25.044;2024-03-06T11:56:22;0;0;
73517;PMS5003;61766;60.318;25.044;2024-03-06T11:58:47;2;2;
73517;PMS5003;61766;60.318;25.044;2024-03-06T12:01:12;0;0;
73517;PMS5003;61766;60.318;25.044;2024-03-06T12:03:37;0;0;
73517;PMS5003;61766;60.318;25.044;2024-03-06T12:06:02;1;1;
73517;PMS5003;61766;60.318;25.044;2024-03-06T12:08:27;0;0;
73517;PMS5003;61766;60.318;25.044;2024-03-06T12:10:52;1;1;
73517;PMS5003;61766;60.318;25.044;2024-03-06T12:13:17;3;2;
73517;PMS5003;61766;60.318;25.044;2024-03-06T12:15:42;4;2;
73517;PMS5003;61766;60.318;25.044;2024-03-06T12:18:08;2;1;
73517;PMS5003;61766;60.318;25.044;2024-03-06T12:20:33;1;1;
73517;PMS5003;61766;60.318;25.044;2024-03-06T12:22:58;1;1;
73517;PMS5003;61766;60.318;25.044;2024-03-06T12:25:23;1;1;
73517;PMS5003;61766;60.318;25.044;2024-03-06T12:27:48;2;2;
73517;PMS5003;61766;60.318;25.044;2024-03-06T12:30:15;0;0;
73517;PMS5003;61766;60.318;25.044;2024-03-06T12:32:38;1;1;
73517;PMS5003;61766;60.318;25.044;2024-03-06T12:35:04;1;1;
73517;PMS5003;61766;60.318;25.044;2024-03-06T12:37:30;1;1;
73517;PMS5003;61766;60.318;25.044;2024-03-06T12:39:55;0;0;
73517;PMS5003;61766;60.318;25.044;2024-03-06T12:42:21;1;1;
73517;PMS5003;61766;60.318;25.044;2024-03-06T12:44:47;3;3;
73517;PMS5003;61766;60.318;25.044;2024-03-06T12:47:13;1;1;
73517;PMS5003;61766;60.318;25.044;2024-03-06T12:49:39;1;1;
73517;PMS5003;61766;60.318;25.044;2024-03-06T12:52:04;1;1;
73517;PMS5003;61766;60.318;25.044;2024-03-06T12:54:30;0;0;
73517;PMS5003;61766;60.318;25.044;2024-03-06T12:56:55;0;0;
73517;PMS5003;61766;60.318;25.044;2024-03-06T12:59:21;2;1;
73517;PMS5003;61766;60.318;25.044;2024-03-06T13:01:47;0;0;
73517;PMS5003;61766;60.318;25.044;2024-03-06T13:04:13;2;1;
73517;PMS5003;61766;60.318;25.044;2024-03-06T13:06:40;1;1;
73517;PMS5003;61766;60.318;25.044;2024-03-06T13:09:05;1;0;
73517;PMS5003;61766;60.318;25.044;2024-03-06T13:11:31;0;0;
73517;PMS5003;61766;60.318;25.044;2024-03-06T13:13:56;2;2;
73517;PMS5003;61766;60.318;25.044;2024-03-06T13:16:22;2;2;
73517;PMS5003;61766;60.318;25.044;2024-03-06T13:18:47;2;2;
73517;PMS5003;61766;60.318;25.044;2024-03-06T13:21:12;1;1;
73517;PMS5003;61766;60.318;25.044;2024-03-06T13:23:37;0;0;
73517;PMS5003;61766;60.318;25.044;2024-03-06T13:26:03;1;1;
73517;PMS5003;61766;60.318;25.044;2024-03-06T13:28:28;0;0;
73517;PMS5003;61766;60.318;25.044;2024-03-06T13:30:53;0;0;
73517;PMS5003;61766;60.318;25.044;2024-03-06T13:33:19;0;0;
73517;PMS5003;61766;60.318;25.044;2024-03-06T13:35:44;1;1;
73517;PMS5003;61766;60.318;25.044;2024-03-06T13:38:10;1;1;
73517;PMS5003;61766;60.318;25.044;2024-03-06T13:40:35;0;0;
73517;PMS5003;61766;60.318;25.044;2024-03-06T13:43:00;2;2;
73517;PMS5003;61766;60.318;25.044;2024-03-06T13:45:25;0;0;
73517;PMS5003;61766;60.318;25.044;2024-03-06T13:47:50;2;2;
73517;PMS5003;61766;60.318;25.044;2024-03-06T13:50:15;1;0;
73517;PMS5003;61766;60.318;25.044;2024-03-06T13:52:40;0;0;
73517;PMS5003;61766;60.318;25.044;2024-03-06T13:55:06;1;1;
73517;PMS5003;61766;60.318;25.044;2024-03-06T13:57:30;1;1;
73517;PMS5003;61766;60.318;25.044;2024-03-06T13:59:55;0;0;
73517;PMS5003;61766;60.318;25.044;2024-03-06T14:02:21;1;1;
73517;PMS5003;61766;60.318;25.044;2024-03-06T14:04:46;1;1;
73517;PMS5003;61766;60.318;25.044;2024-03-06T14:07:11;1;1;
73517;PMS5003;61766;60.318;25.044;2024-03-06T14:09:36;0;0;
73517;PMS5003;61766;60.318;25.044;2024-03-06T14:12:02;1;1;
73517;PMS5003;61766;60.318;25.044;2024-03-06T14:14:27;1;1;
73517;PMS5003;61766;60.318;25.044;2024-03-06T14:16:53;2;1;
73517;PMS5003;61766;60.318;25.044;2024-03-06T14:19:18;1;1;
73517;PMS5003;61766;60.318;25.044;2024-03-06T14:21:43;2;2;
73517;PMS5003;61766;60.318;25.044;2024-03-06T14:24:08;1;1;
73517;PMS5003;61766;60.318;25.044;2024-03-06T14:26:33;4;2;
73517;PMS5003;61766;60.318;25.044;2024-03-06T14:28:58;0;0;
73517;PMS5003;61766;60.318;25.044;2024-03-06T14:31:23;2;1;
73517;PMS5003;61766;60.318;25.044;2024-03-06T14:33:48;2;2;
73517;PMS5003;61766;60.318;25.044;2024-03-06T14:36:13;1;1;
73517;PMS5003;61766;60.318;25.044;2024-03-06T14:38:38;1;0;
73517;PMS5003;61766;60.318;25.044;2024-03-06T14:41:03;2;2;
73517;PMS5003;61766;60.318;25.044;2024-03-06T14:43:28;1;1;
73517;PMS5003;61766;60.318;25.044;2024-03-06T14:45:53;2;2;
73517;PMS5003;61766;60.318;25.044;2024-03-06T14:48:19;2;2;
73517;PMS5003;61766;60.318;25.044;2024-03-06T14:50:44;1;1;
73517;PMS5003;61766;60.318;25.044;2024-03-06T14:53:09;2;2;
73517;PMS5003;61766;60.318;25.044;2024-03-06T14:55:34;3;3;
73517;PMS5003;61766;60.318;25.044;2024-03-06T14:57:59;2;2;
73517;PMS5003;61766;60.318;25.044;2024-03-06T15:00:24;3;2;
73517;PMS5003;61766;60.318;25.044;2024-03-06T15:02:49;1;1;
73517;PMS5003;61766;60.318;25.044;2024-03-06T15:05:15;2;1;
73517;PMS5003;61766;60.318;25.044;2024-03-06T15:07:40;2;2;
73517;PMS5003;61766;60.318;25.044;2024-03-06T15:10:05;2;2;
73517;PMS5003;61766;60.318;25.044;2024-03-06T15:12:30;2;2;
73517;PMS5003;61766;60.318;25.044;2024-03-06T15:14:55;2;2;
73517;PMS5003;61766;60.318;25.044;2024-03-06T15:17:20;3;2;
73517;PMS5003;61766;60.318;25.044;2024-03-06T15:19:45;4;4;
73517;PMS5003;61766;60.318;25.044;2024-03-06T15:22:10;2;2;
73517;PMS5003;61766;60.318;25.044;2024-03-06T15:24:36;1;1;
73517;PMS5003;61766;60.318;25.044;2024-03-06T15:27:00;4;2;
73517;PMS5003;61766;60.318;25.044;2024-03-06T15:29:25;2;2;
73517;PMS5003;61766;60.318;25.044;2024-03-06T15:31:51;3;3;
73517;PMS5003;61766;60.318;25.044;2024-03-06T15:34:16;4;4;
73517;PMS5003;61766;60.318;25.044;2024-03-06T15:36:41;3;3;
73517;PMS5003;61766;60.318;25.044;2024-03-06T15:39:06;2;2;
73517;PMS5003;61766;60.318;25.044;2024-03-06T15:41:32;6;6;
73517;PMS5003;61766;60.318;25.044;2024-03-06T15:43:57;4;2;
73517;PMS5003;61766;60.318;25.044;2024-03-06T15:46:22;2;2;
73517;PMS5003;61766;60.318;25.044;2024-03-06T15:48:48;2;2;
73517;PMS5003;61766;60.318;25.044;2024-03-06T15:51:13;4;4;
73517;PMS5003;61766;60.318;25.044;2024-03-06T15:53:38;4;4;
73517;PMS5003;61766;60.318;25.044;2024-03-06T15:56:03;3;3;
73517;PMS5003;61766;60.318;25.044;2024-03-06T15:58:28;3;3;
73517;PMS5003;61766;60.318;25.044;2024-03-06T16:00:54;4;4;
73517;PMS5003;61766;60.318;25.044;2024-03-06T16:03:19;5;5;
73517;PMS5003;61766;60.318;25.044;2024-03-06T16:05:44;6;4;
73517;PMS5003;61766;60.318;25.044;2024-03-06T16:08:09;5;5;
73517;PMS5003;61766;60.318;25.044;2024-03-06T16:10:34;10;10;
73517;PMS5003;61766;60.318;25.044;2024-03-06T16:12:59;8;7;
73517;PMS5003;61766;60.318;25.044;2024-03-06T16:15:25;8;8;
73517;PMS5003;61766;60.318;25.044;2024-03-06T16:17:50;10;10;
73517;PMS5003;61766;60.318;25.044;2024-03-06T16:20:15;8;8;
73517;PMS5003;61766;60.318;25.044;2024-03-06T16:22:41;8;7;
73517;PMS5003;61766;60.318;25.044;2024-03-06T16:25:07;10;9;
73517;PMS5003;61766;60.318;25.044;2024-03-06T16:27:32;7;7;
73517;PMS5003;61766;60.318;25.044;2024-03-06T16:29:57;11;11;